sensor_id;sensor_type;location;lat;lon;timestamp;temperature;humidity
29479;DHT22;16437;41.836;23.480;2023-01-01T00:05:06;10.50;62.50
29479;DHT22;16437;41.836;23.480;2023-01-01T00:10:33;10.50;62.60
29479;DHT22;16437;41.836;23.480;2023-01-01T00:16:07;10.50;62.70
29479;DHT22;16437;41.836;23.480;2023-01-01T00:21:34;10.50;62.70
29479;DHT22;16437;41.836;23.480;2023-01-01T00:27:00;10.50;62.60
29479;DHT22;16437;41.836;23.480;2023-01-01T00:32:26;10.50;62.60
29479;DHT22;16437;41.836;23.480;2023-01-01T00:37:53;10.50;62.70
29479;DHT22;16437;41.836;23.480;2023-01-01T00:43:20;10.50;62.60
29479;DHT22;16437;41.836;23.480;2023-01-01T00:48:47;10.50;62.60
29479;DHT22;16437;41.836;23.480;2023-01-01T00:54:13;10.50;62.60
29479;DHT22;16437;41.836;23.480;2023-01-01T00:59:40;10.50;62.70
29479;DHT22;16437;41.836;23.480;2023-01-01T01:05:07;10.50;62.70
29479;DHT22;16437;41.836;23.480;2023-01-01T01:10:33;10.40;62.80
29479;DHT22;16437;41.836;23.480;2023-01-01T01:15:59;10.40;62.80
29479;DHT22;16437;41.836;23.480;2023-01-01T01:21:27;10.50;62.80
29479;DHT22;16437;41.836;23.480;2023-01-01T01:26:54;10.40;62.70
29479;DHT22;16437;41.836;23.480;2023-01-01T01:32:20;10.40;62.70
29479;DHT22;16437;41.836;23.480;2023-01-01T01:37:46;10.50;62.60
29479;DHT22;16437;41.836;23.480;2023-01-01T01:43:22;10.40;62.50
29479;DHT22;16437;41.836;23.480;2023-01-01T01:48:50;10.40;62.30
29479;DHT22;16437;41.836;23.480;2023-01-01T01:54:19;10.40;62.20
29479;DHT22;16437;41.836;23.480;2023-01-01T01:59:48;10.40;62.20
29479;DHT22;16437;41.836;23.480;2023-01-01T02:05:17;10.40;62.10
29479;DHT22;16437;41.836;23.480;2023-01-01T02:10:50;10.40;62.20
29479;DHT22;16437;41.836;23.480;2023-01-01T02:16:22;10.40;62.10
29479;DHT22;16437;41.836;23.480;2023-01-01T02:27:34;10.40;62.20
29479;DHT22;16437;41.836;23.480;2023-01-01T02:33:01;10.40;62.10
29479;DHT22;16437;41.836;23.480;2023-01-01T02:38:40;10.40;62.10
29479;DHT22;16437;41.836;23.480;2023-01-01T02:44:07;10.40;62.00
29479;DHT22;16437;41.836;23.480;2023-01-01T02:49:36;10.30;62.00
29479;DHT22;16437;41.836;23.480;2023-01-01T02:55:18;10.30;62.00
29479;DHT22;16437;41.836;23.480;2023-01-01T03:00:39;10.30;62.00
29479;DHT22;16437;41.836;23.480;2023-01-01T03:06:09;10.30;61.90
29479;DHT22;16437;41.836;23.480;2023-01-01T03:17:39;10.30;61.90
29479;DHT22;16437;41.836;23.480;2023-01-01T03:23:12;10.30;61.80
29479;DHT22;16437;41.836;23.480;2023-01-01T03:28:43;10.30;61.80
29479;DHT22;16437;41.836;23.480;2023-01-01T03:34:16;10.30;61.80
29479;DHT22;16437;41.836;23.480;2023-01-01T03:39:49;10.30;61.80
29479;DHT22;16437;41.836;23.480;2023-01-01T03:45:34;10.30;61.80
29479;DHT22;16437;41.836;23.480;2023-01-01T03:51:16;10.30;61.80
29479;DHT22;16437;41.836;23.480;2023-01-01T03:56:43;10.30;61.80
29479;DHT22;16437;41.836;23.480;2023-01-01T04:02:10;10.30;61.80
29479;DHT22;16437;41.836;23.480;2023-01-01T04:07:39;10.30;61.80
29479;DHT22;16437;41.836;23.480;2023-01-01T04:13:06;10.30;61.80
29479;DHT22;16437;41.836;23.480;2023-01-01T04:18:32;10.20;61.80
29479;DHT22;16437;41.836;23.480;2023-01-01T04:23:58;10.20;61.80
29479;DHT22;16437;41.836;23.480;2023-01-01T04:29:25;10.20;61.80
29479;DHT22;16437;41.836;23.480;2023-01-01T04:34:52;10.20;61.80
29479;DHT22;16437;41.836;23.480;2023-01-01T04:40:18;10.30;61.70
29479;DHT22;16437;41.836;23.480;2023-01-01T04:45:54;10.20;61.70
29479;DHT22;16437;41.836;23.480;2023-01-01T04:51:17;10.20;61.60
29479;DHT22;16437;41.836;23.480;2023-01-01T04:56:43;10.20;61.60
29479;DHT22;16437;41.836;23.480;2023-01-01T05:02:10;10.20;61.60
29479;DHT22;16437;41.836;23.480;2023-01-01T05:07:36;10.20;61.60
29479;DHT22;16437;41.836;23.480;2023-01-01T05:13:07;10.20;61.60
29479;DHT22;16437;41.836;23.480;2023-01-01T05:18:35;10.20;61.70
29479;DHT22;16437;41.836;23.480;2023-01-01T05:24:04;10.20;61.60
29479;DHT22;16437;41.836;23.480;2023-01-01T05:29:30;10.20;61.60
29479;DHT22;16437;41.836;23.480;2023-01-01T05:34:57;10.20;61.60
29479;DHT22;16437;41.836;23.480;2023-01-01T05:40:23;10.10;61.50
29479;DHT22;16437;41.836;23.480;2023-01-01T05:52:20;10.20;61.30
29479;DHT22;16437;41.836;23.480;2023-01-01T05:57:47;10.10;61.30
29479;DHT22;16437;41.836;23.480;2023-01-01T06:03:13;10.10;61.20
29479;DHT22;16437;41.836;23.480;2023-01-01T06:08:40;10.10;61.20
29479;DHT22;16437;41.836;23.480;2023-01-01T06:14:07;10.10;61.20
29479;DHT22;16437;41.836;23.480;2023-01-01T06:19:33;10.10;61.10
29479;DHT22;16437;41.836;23.480;2023-01-01T06:24:59;10.10;61.10
29479;DHT22;16437;41.836;23.480;2023-01-01T06:30:26;10.10;61.10
29479;DHT22;16437;41.836;23.480;2023-01-01T06:35:52;10.10;61.10
29479;DHT22;16437;41.836;23.480;2023-01-01T06:41:22;10.10;61.10
29479;DHT22;16437;41.836;23.480;2023-01-01T06:46:49;10.10;61.00
29479;DHT22;16437;41.836;23.480;2023-01-01T06:52:15;10.10;61.10
29479;DHT22;16437;41.836;23.480;2023-01-01T06:57:41;10.10;61.10
29479;DHT22;16437;41.836;23.480;2023-01-01T07:03:09;10.10;60.90
29479;DHT22;16437;41.836;23.480;2023-01-01T07:08:36;10.10;60.90
29479;DHT22;16437;41.836;23.480;2023-01-01T07:14:03;10.10;61.00
29479;DHT22;16437;41.836;23.480;2023-01-01T07:19:29;10.10;61.00
29479;DHT22;16437;41.836;23.480;2023-01-01T07:24:56;10.10;61.00
29479;DHT22;16437;41.836;23.480;2023-01-01T07:30:22;10.10;61.10
29479;DHT22;16437;41.836;23.480;2023-01-01T07:42:10;10.10;61.40
29479;DHT22;16437;41.836;23.480;2023-01-01T07:47:36;10.10;61.40
29479;DHT22;16437;41.836;23.480;2023-01-01T07:53:03;10.10;61.40
29479;DHT22;16437;41.836;23.480;2023-01-01T07:58:29;10.10;61.50
29479;DHT22;16437;41.836;23.480;2023-01-01T08:03:56;10.10;61.50
29479;DHT22;16437;41.836;23.480;2023-01-01T08:09:32;10.10;61.50
29479;DHT22;16437;41.836;23.480;2023-01-01T08:14:58;10.10;61.50
29479;DHT22;16437;41.836;23.480;2023-01-01T08:20:25;10.10;61.50
29479;DHT22;16437;41.836;23.480;2023-01-01T08:25:51;10.10;61.50
29479;DHT22;16437;41.836;23.480;2023-01-01T08:31:18;10.10;61.40
29479;DHT22;16437;41.836;23.480;2023-01-01T08:36:45;10.10;61.50
29479;DHT22;16437;41.836;23.480;2023-01-01T08:42:11;10.10;61.50
29479;DHT22;16437;41.836;23.480;2023-01-01T08:47:39;10.20;61.50
29479;DHT22;16437;41.836;23.480;2023-01-01T08:53:05;10.10;61.50
29479;DHT22;16437;41.836;23.480;2023-01-01T08:58:34;10.20;61.50
29479;DHT22;16437;41.836;23.480;2023-01-01T09:04:01;10.20;61.60
29479;DHT22;16437;41.836;23.480;2023-01-01T09:09:27;10.10;61.60
29479;DHT22;16437;41.836;23.480;2023-01-01T09:14:54;10.20;61.60
29479;DHT22;16437;41.836;23.480;2023-01-01T09:20:20;10.20;61.40
29479;DHT22;16437;41.836;23.480;2023-01-01T09:25:47;10.20;61.40
29479;DHT22;16437;41.836;23.480;2023-01-01T09:31:13;10.20;61.40
29479;DHT22;16437;41.836;23.480;2023-01-01T09:36:43;10.20;61.40
29479;DHT22;16437;41.836;23.480;2023-01-01T09:42:44;10.20;61.40
29479;DHT22;16437;41.836;23.480;2023-01-01T09:48:12;10.20;61.40
29479;DHT22;16437;41.836;23.480;2023-01-01T09:53:49;10.20;61.50
29479;DHT22;16437;41.836;23.480;2023-01-01T09:59:12;10.20;61.50
29479;DHT22;16437;41.836;23.480;2023-01-01T10:04:47;10.20;61.50
29479;DHT22;16437;41.836;23.480;2023-01-01T10:10:35;10.30;61.50
29479;DHT22;16437;41.836;23.480;2023-01-01T10:22:05;10.40;61.50
29479;DHT22;16437;41.836;23.480;2023-01-01T10:27:43;10.40;61.60
29479;DHT22;16437;41.836;23.480;2023-01-01T10:33:10;10.40;61.60
29479;DHT22;16437;41.836;23.480;2023-01-01T10:38:41;10.50;61.40
29479;DHT22;16437;41.836;23.480;2023-01-01T10:44:34;10.50;61.40
29479;DHT22;16437;41.836;23.480;2023-01-01T10:50:03;10.60;61.40
29479;DHT22;16437;41.836;23.480;2023-01-01T10:55:32;10.60;61.40
29479;DHT22;16437;41.836;23.480;2023-01-01T11:01:00;10.70;61.40
29479;DHT22;16437;41.836;23.480;2023-01-01T11:12:07;10.90;61.70
29479;DHT22;16437;41.836;23.480;2023-01-01T11:17:36;11.00;61.70
29479;DHT22;16437;41.836;23.480;2023-01-01T11:23:50;11.10;61.60
29479;DHT22;16437;41.836;23.480;2023-01-01T11:28:33;11.20;61.50
29479;DHT22;16437;41.836;23.480;2023-01-01T11:39:48;11.30;61.20
29479;DHT22;16437;41.836;23.480;2023-01-01T11:45:24;11.40;61.00
29479;DHT22;16437;41.836;23.480;2023-01-01T11:50:54;11.50;60.80
29479;DHT22;16437;41.836;23.480;2023-01-01T11:56:20;11.60;60.60
29479;DHT22;16437;41.836;23.480;2023-01-01T12:01:52;11.70;60.40
29479;DHT22;16437;41.836;23.480;2023-01-01T12:07:22;11.80;60.00
29479;DHT22;16437;41.836;23.480;2023-01-01T12:13:05;11.90;59.80
29479;DHT22;16437;41.836;23.480;2023-01-01T12:24:30;12.10;59.30
29479;DHT22;16437;41.836;23.480;2023-01-01T12:30:09;12.10;59.10
29479;DHT22;16437;41.836;23.480;2023-01-01T12:36:07;12.20;58.90
29479;DHT22;16437;41.836;23.480;2023-01-01T12:42:25;12.30;58.80
29479;DHT22;16437;41.836;23.480;2023-01-01T13:05:21;12.40;58.60
29479;DHT22;16437;41.836;23.480;2023-01-01T13:10:44;12.30;58.60
29479;DHT22;16437;41.836;23.480;2023-01-01T13:16:11;12.30;58.60
29479;DHT22;16437;41.836;23.480;2023-01-01T13:21:38;12.20;58.70
29479;DHT22;16437;41.836;23.480;2023-01-01T13:27:06;12.20;58.80
29479;DHT22;16437;41.836;23.480;2023-01-01T13:32:56;12.20;58.90
29479;DHT22;16437;41.836;23.480;2023-01-01T13:38:24;12.20;58.90
29479;DHT22;16437;41.836;23.480;2023-01-01T13:43:33;12.20;59.00
29479;DHT22;16437;41.836;23.480;2023-01-01T13:55:06;12.10;59.10
29479;DHT22;16437;41.836;23.480;2023-01-01T14:00:39;12.00;59.20
29479;DHT22;16437;41.836;23.480;2023-01-01T14:06:03;11.90;59.30
29479;DHT22;16437;41.836;23.480;2023-01-01T14:11:31;11.90;59.50
29479;DHT22;16437;41.836;23.480;2023-01-01T14:17:04;11.90;59.70
29479;DHT22;16437;41.836;23.480;2023-01-01T14:22:28;11.80;59.90
29479;DHT22;16437;41.836;23.480;2023-01-01T14:27:57;11.80;60.00
29479;DHT22;16437;41.836;23.480;2023-01-01T14:33:28;11.80;60.10
29479;DHT22;16437;41.836;23.480;2023-01-01T14:38:57;11.70;60.20
29479;DHT22;16437;41.836;23.480;2023-01-01T14:44:39;11.70;60.30
29479;DHT22;16437;41.836;23.480;2023-01-01T14:55:42;11.70;60.60
29479;DHT22;16437;41.836;23.480;2023-01-01T15:01:16;11.60;60.70
29479;DHT22;16437;41.836;23.480;2023-01-01T15:06:44;11.60;60.80
29479;DHT22;16437;41.836;23.480;2023-01-01T15:12:12;11.60;60.90
29479;DHT22;16437;41.836;23.480;2023-01-01T15:17:44;11.60;60.90
29479;DHT22;16437;41.836;23.480;2023-01-01T15:23:13;11.60;61.00
29479;DHT22;16437;41.836;23.480;2023-01-01T15:28:41;11.50;61.00
29479;DHT22;16437;41.836;23.480;2023-01-01T15:34:29;11.50;61.10
29479;DHT22;16437;41.836;23.480;2023-01-01T15:39:58;11.50;61.10
29479;DHT22;16437;41.836;23.480;2023-01-01T15:45:27;11.50;61.20
29479;DHT22;16437;41.836;23.480;2023-01-01T15:50:57;11.50;61.20
29479;DHT22;16437;41.836;23.480;2023-01-01T15:56:31;11.50;61.30
29479;DHT22;16437;41.836;23.480;2023-01-01T16:02:12;11.40;61.30
29479;DHT22;16437;41.836;23.480;2023-01-01T16:07:37;11.50;61.30
29479;DHT22;16437;41.836;23.480;2023-01-01T16:13:04;11.40;61.20
29479;DHT22;16437;41.836;23.480;2023-01-01T16:18:32;11.50;61.20
29479;DHT22;16437;41.836;23.480;2023-01-01T16:23:59;11.40;61.20
29479;DHT22;16437;41.836;23.480;2023-01-01T16:29:26;11.40;61.10
29479;DHT22;16437;41.836;23.480;2023-01-01T16:34:53;11.40;61.20
29479;DHT22;16437;41.836;23.480;2023-01-01T16:40:20;11.40;61.20
29479;DHT22;16437;41.836;23.480;2023-01-01T16:45:46;11.40;61.40
29479;DHT22;16437;41.836;23.480;2023-01-01T16:51:22;11.40;61.40
29479;DHT22;16437;41.836;23.480;2023-01-01T16:56:48;11.40;61.40
29479;DHT22;16437;41.836;23.480;2023-01-01T17:02:14;11.30;61.50
29479;DHT22;16437;41.836;23.480;2023-01-01T17:07:40;11.30;61.60
29479;DHT22;16437;41.836;23.480;2023-01-01T17:13:06;11.30;61.60
29479;DHT22;16437;41.836;23.480;2023-01-01T17:18:33;11.30;61.60
29479;DHT22;16437;41.836;23.480;2023-01-01T17:24:00;11.30;61.60
29479;DHT22;16437;41.836;23.480;2023-01-01T17:29:27;11.30;61.60
29479;DHT22;16437;41.836;23.480;2023-01-01T17:34:53;11.30;61.60
29479;DHT22;16437;41.836;23.480;2023-01-01T17:40:19;11.30;61.60
29479;DHT22;16437;41.836;23.480;2023-01-01T17:45:46;11.20;61.70
29479;DHT22;16437;41.836;23.480;2023-01-01T17:51:13;11.30;61.80
29479;DHT22;16437;41.836;23.480;2023-01-01T17:56:40;11.20;61.80
29479;DHT22;16437;41.836;23.480;2023-01-01T18:02:13;11.20;61.90
29479;DHT22;16437;41.836;23.480;2023-01-01T18:07:36;11.20;62.00
29479;DHT22;16437;41.836;23.480;2023-01-01T18:13:03;11.20;61.90
29479;DHT22;16437;41.836;23.480;2023-01-01T18:18:30;11.20;61.90
29479;DHT22;16437;41.836;23.480;2023-01-01T18:23:57;11.20;61.90
29479;DHT22;16437;41.836;23.480;2023-01-01T18:29:24;11.10;61.90
29479;DHT22;16437;41.836;23.480;2023-01-01T18:34:50;11.10;61.90
29479;DHT22;16437;41.836;23.480;2023-01-01T18:40:17;11.20;61.90
29479;DHT22;16437;41.836;23.480;2023-01-01T18:45:44;11.10;62.00
29479;DHT22;16437;41.836;23.480;2023-01-01T18:51:23;11.10;62.10
29479;DHT22;16437;41.836;23.480;2023-01-01T18:56:58;11.20;62.20
29479;DHT22;16437;41.836;23.480;2023-01-01T19:02:30;11.10;62.20
29479;DHT22;16437;41.836;23.480;2023-01-01T19:08:10;11.10;62.30
29479;DHT22;16437;41.836;23.480;2023-01-01T19:13:38;11.10;62.40
29479;DHT22;16437;41.836;23.480;2023-01-01T19:19:14;11.10;62.30
29479;DHT22;16437;41.836;23.480;2023-01-01T19:24:41;11.10;62.30
29479;DHT22;16437;41.836;23.480;2023-01-01T19:30:20;11.10;62.40
29479;DHT22;16437;41.836;23.480;2023-01-01T19:35:49;11.10;62.50
29479;DHT22;16437;41.836;23.480;2023-01-01T19:41:15;11.10;62.60
29479;DHT22;16437;41.836;23.480;2023-01-01T19:46:42;11.10;62.50
29479;DHT22;16437;41.836;23.480;2023-01-01T19:52:08;11.10;62.70
29479;DHT22;16437;41.836;23.480;2023-01-01T19:57:35;11.10;62.80
29479;DHT22;16437;41.836;23.480;2023-01-01T20:03:01;11.00;62.80
29479;DHT22;16437;41.836;23.480;2023-01-01T20:08:27;11.00;62.80
29479;DHT22;16437;41.836;23.480;2023-01-01T20:14:01;11.00;62.90
29479;DHT22;16437;41.836;23.480;2023-01-01T20:19:24;11.00;62.90
29479;DHT22;16437;41.836;23.480;2023-01-01T20:24:51;11.00;63.00
29479;DHT22;16437;41.836;23.480;2023-01-01T20:30:17;11.00;62.90
29479;DHT22;16437;41.836;23.480;2023-01-01T20:35:44;11.00;62.90
29479;DHT22;16437;41.836;23.480;2023-01-01T20:41:18;11.00;62.90
29479;DHT22;16437;41.836;23.480;2023-01-01T20:46:50;11.00;63.00
29479;DHT22;16437;41.836;23.480;2023-01-01T20:52:17;11.00;63.00
29479;DHT22;16437;41.836;23.480;2023-01-01T20:57:43;11.00;63.00
29479;DHT22;16437;41.836;23.480;2023-01-01T21:03:09;11.00;63.00
29479;DHT22;16437;41.836;23.480;2023-01-01T21:08:35;11.00;62.90
29479;DHT22;16437;41.836;23.480;2023-01-01T21:14:02;10.90;62.90
29479;DHT22;16437;41.836;23.480;2023-01-01T21:19:28;11.00;62.90
29479;DHT22;16437;41.836;23.480;2023-01-01T21:24:56;11.00;62.90
29479;DHT22;16437;41.836;23.480;2023-01-01T21:30:23;10.90;62.80
29479;DHT22;16437;41.836;23.480;2023-01-01T21:35:49;10.90;62.80
29479;DHT22;16437;41.836;23.480;2023-01-01T21:41:18;10.90;62.80
29479;DHT22;16437;41.836;23.480;2023-01-01T21:46:46;10.90;62.80
29479;DHT22;16437;41.836;23.480;2023-01-01T21:52:17;10.90;62.70
29479;DHT22;16437;41.836;23.480;2023-01-01T21:57:44;10.90;62.80
29479;DHT22;16437;41.836;23.480;2023-01-01T22:03:13;10.90;62.80
29479;DHT22;16437;41.836;23.480;2023-01-01T22:08:41;10.90;62.80
29479;DHT22;16437;41.836;23.480;2023-01-01T22:14:15;10.90;62.90
29479;DHT22;16437;41.836;23.480;2023-01-01T22:19:42;10.80;62.90
29479;DHT22;16437;41.836;23.480;2023-01-01T22:25:22;10.90;62.90
29479;DHT22;16437;41.836;23.480;2023-01-01T22:30:44;10.80;63.00
29479;DHT22;16437;41.836;23.480;2023-01-01T22:36:23;10.90;63.00
29479;DHT22;16437;41.836;23.480;2023-01-01T22:41:50;10.80;63.00
29479;DHT22;16437;41.836;23.480;2023-01-01T22:47:16;10.90;63.00
29479;DHT22;16437;41.836;23.480;2023-01-01T22:52:43;10.80;63.10
29479;DHT22;16437;41.836;23.480;2023-01-01T22:58:09;10.80;63.10
29479;DHT22;16437;41.836;23.480;2023-01-01T23:03:36;10.80;63.10
29479;DHT22;16437;41.836;23.480;2023-01-01T23:09:03;10.80;63.00
29479;DHT22;16437;41.836;23.480;2023-01-01T23:14:31;10.80;63.10
29479;DHT22;16437;41.836;23.480;2023-01-01T23:20:15;10.80;63.10
29479;DHT22;16437;41.836;23.480;2023-01-01T23:25:43;10.80;63.20
29479;DHT22;16437;41.836;23.480;2023-01-01T23:31:11;10.80;63.20
29479;DHT22;16437;41.836;23.480;2023-01-01T23:36:38;10.80;63.20
29479;DHT22;16437;41.836;23.480;2023-01-01T23:42:05;10.80;63.20
29479;DHT22;16437;41.836;23.480;2023-01-01T23:47:31;10.80;63.10
29479;DHT22;16437;41.836;23.480;2023-01-01T23:52:58;10.80;63.00
29479;DHT22;16437;41.836;23.480;2023-01-01T23:58:25;10.80;62.80
